createdAt,value
2019-03-28T00:02:05.330Z,95912.62
2019-03-28T00:04:35.751Z,95919.09
2019-03-28T00:07:06.085Z,95921.95
2019-03-28T00:09:36.270Z,95914.58
2019-03-28T00:12:06.572Z,95924.38
2019-03-28T00:14:36.939Z,95919.49
2019-03-28T00:17:07.307Z,95922.45
2019-03-28T00:19:37.780Z,95917.02
2019-03-28T00:22:08.082Z,95917.75
2019-03-28T00:24:43.894Z,95917.08
2019-03-28T00:27:14.046Z,95913.13
2019-03-28T00:29:44.163Z,95912.12
2019-03-28T00:32:14.257Z,95910.30
2019-03-28T00:34:44.426Z,95904.38
2019-03-28T00:37:14.516Z,95904.66
2019-03-28T00:39:44.548Z,95904.67
2019-03-28T00:42:23.205Z,95903.84
2019-03-28T00:44:53.423Z,95901.43
2019-03-28T00:47:23.440Z,95906.34
2019-03-28T00:49:53.664Z,95912.31
2019-03-28T00:52:23.773Z,95902.38
2019-03-28T00:54:54.007Z,95900.80
2019-03-28T00:57:25.542Z,95900.34
2019-03-28T00:59:55.680Z,95901.89
2019-03-28T01:02:26.149Z,95906.23
2019-03-28T01:04:56.551Z,95904.20
2019-03-28T01:07:26.893Z,95900.33
2019-03-28T01:09:57.262Z,95905.30
2019-03-28T01:12:27.662Z,95903.30
2019-03-28T01:14:58.158Z,95904.95
2019-03-28T01:17:28.561Z,95901.64
2019-03-28T01:19:58.912Z,95899.22
2019-03-28T01:22:29.291Z,95908.00
2019-03-28T01:24:59.695Z,95902.94
2019-03-28T01:27:30.164Z,95907.91
2019-03-28T01:30:00.488Z,95906.97
2019-03-28T01:32:30.965Z,95905.41
2019-03-28T01:35:01.191Z,95901.25
2019-03-28T01:37:31.205Z,95896.37
2019-03-28T01:40:01.392Z,95900.61
2019-03-28T01:42:32.734Z,95899.41
2019-03-28T01:45:03.266Z,95896.27
2019-03-28T01:47:33.312Z,95895.44
2019-03-28T01:50:03.590Z,95896.45
2019-03-28T01:52:34.004Z,95896.64
2019-03-28T01:55:04.348Z,95894.89
2019-03-28T01:57:34.480Z,95888.62
2019-03-28T02:00:05.074Z,95894.08
2019-03-28T02:02:35.445Z,95898.48
2019-03-28T02:05:06.093Z,95896.08
2019-03-28T02:07:36.373Z,95906.51
2019-03-28T02:10:06.888Z,95911.06
2019-03-28T02:12:37.320Z,95914.73
2019-03-28T02:15:08.616Z,95911.27
2019-03-28T02:17:38.900Z,95915.44
2019-03-28T02:20:10.416Z,95916.84
2019-03-28T02:22:40.946Z,95915.72
2019-03-28T02:25:12.762Z,95910.91
2019-03-28T02:27:42.863Z,95911.30
2019-03-28T02:30:13.250Z,95914.45
2019-03-28T02:32:43.313Z,95919.77
2019-03-28T02:35:13.574Z,95924.92
2019-03-28T02:37:43.660Z,95923.00
2019-03-28T02:40:13.967Z,95918.86
2019-03-28T02:42:44.011Z,95920.53
2019-03-28T02:45:14.157Z,95917.36
2019-03-28T02:47:44.193Z,95922.13
2019-03-28T02:50:14.300Z,95920.20
2019-03-28T02:52:45.309Z,95921.80
2019-03-28T02:55:15.324Z,95923.68
2019-03-28T02:57:45.335Z,95924.86
2019-03-28T03:00:15.494Z,95919.91
2019-03-28T03:02:45.565Z,95924.79
2019-03-28T03:05:15.697Z,95931.16
2019-03-28T03:07:45.816Z,95930.72
2019-03-28T03:10:15.968Z,95929.98
2019-03-28T03:12:46.095Z,95935.50
2019-03-28T03:15:16.308Z,95925.94
2019-03-28T03:17:46.312Z,95931.17
2019-03-28T03:20:17.501Z,95937.83
2019-03-28T03:22:47.737Z,95934.12
2019-03-28T03:25:18.170Z,95932.63
2019-03-28T03:27:57.758Z,95934.00
2019-03-28T03:30:20.458Z,95940.58
2019-03-28T03:32:50.860Z,95945.87
2019-03-28T03:35:21.125Z,95948.06
2019-03-28T03:37:51.371Z,95950.73
2019-03-28T03:40:21.484Z,95954.95
2019-03-28T03:42:51.721Z,95952.46
2019-03-28T03:45:21.776Z,95957.28
2019-03-28T03:47:52.021Z,95954.88
2019-03-28T03:50:26.731Z,95954.20
2019-03-28T03:52:56.742Z,95961.45
2019-03-28T03:55:27.198Z,95958.20
2019-03-28T03:58:13.796Z,95964.99
2019-03-28T04:00:33.295Z,95970.54
2019-03-28T04:03:03.548Z,95977.61
2019-03-28T04:05:33.855Z,95983.80
2019-03-28T04:08:04.403Z,95991.30
2019-03-28T04:10:34.625Z,95988.98
2019-03-28T04:13:05.980Z,95991.59
2019-03-28T04:15:37.902Z,95988.22
2019-03-28T04:18:08.462Z,95986.58
2019-03-28T04:20:39.078Z,95996.56
2019-03-28T04:23:09.392Z,96001.73
2019-03-28T04:25:39.972Z,96003.25
2019-03-28T04:28:10.273Z,95993.57
2019-03-28T04:30:40.557Z,96004.61
2019-03-28T04:33:11.046Z,96006.97
2019-03-28T04:35:41.329Z,96012.03
2019-03-28T04:38:11.530Z,96015.23
2019-03-28T04:40:41.977Z,96011.58
2019-03-28T04:43:12.252Z,96005.26
2019-03-28T04:45:42.544Z,96008.94
2019-03-28T04:48:12.764Z,96007.18
2019-03-28T04:50:43.234Z,96011.12
2019-03-28T04:53:13.497Z,96015.59
2019-03-28T04:55:43.904Z,96018.12
2019-03-28T04:58:14.274Z,96016.88
2019-03-28T05:00:44.564Z,96017.56
2019-03-28T05:03:14.583Z,96021.25
2019-03-28T05:05:44.812Z,96021.25
2019-03-28T05:08:14.970Z,96032.25
2019-03-28T05:10:45.250Z,96026.56
2019-03-28T05:13:15.614Z,96023.70
2019-03-28T05:15:45.806Z,96029.45
2019-03-28T05:18:16.267Z,96026.88
2019-03-28T05:20:46.629Z,96021.84
2019-03-28T05:23:16.925Z,96017.53
2019-03-28T05:25:47.190Z,96016.09
2019-03-28T05:28:17.528Z,96015.41
2019-03-28T05:30:47.753Z,96019.22
2019-03-28T05:33:18.015Z,96022.45
2019-03-28T05:35:48.301Z,96022.56
2019-03-28T05:38:18.620Z,96017.02
2019-03-28T05:40:49.036Z,96011.70
2019-03-28T05:43:19.052Z,96007.09
2019-03-28T05:45:49.087Z,96014.58
2019-03-28T05:48:19.609Z,96020.42
2019-03-28T05:50:50.236Z,96017.70
2019-03-28T05:53:20.589Z,96018.87
2019-03-28T05:55:50.893Z,96019.14
2019-03-28T05:58:21.314Z,96025.88
2019-03-28T06:00:51.670Z,96017.39
2019-03-28T06:03:22.059Z,96020.03
2019-03-28T06:05:52.452Z,96017.61
2019-03-28T06:08:22.771Z,96008.68
2019-03-28T06:10:53.066Z,96010.02
2019-03-28T06:13:23.482Z,96016.91
2019-03-28T06:15:53.895Z,96019.31
2019-03-28T06:18:23.965Z,96019.05
2019-03-28T06:20:54.305Z,96019.30
2019-03-28T06:23:24.403Z,96027.23
2019-03-28T06:25:54.676Z,96028.30
2019-03-28T06:28:25.424Z,96024.01
2019-03-28T06:30:56.119Z,96036.16
2019-03-28T06:33:26.511Z,96028.89
2019-03-28T06:35:56.837Z,96038.58
2019-03-28T06:38:27.252Z,96037.09
2019-03-28T06:40:57.663Z,96043.74
2019-03-28T06:43:27.898Z,96045.47
2019-03-28T06:45:58.279Z,96046.82
2019-03-28T06:48:28.680Z,96041.27
2019-03-28T06:50:59.242Z,96040.91
2019-03-28T06:53:30.457Z,96052.41
2019-03-28T06:56:02.041Z,96051.10
2019-03-28T06:58:32.502Z,96038.67
2019-03-28T07:01:03.015Z,96039.81
2019-03-28T07:03:33.434Z,96053.34
2019-03-28T07:06:03.844Z,96050.18
2019-03-28T07:08:34.288Z,96044.20
2019-03-28T07:11:04.912Z,96051.98
2019-03-28T07:13:35.201Z,96065.64
2019-03-28T07:16:05.753Z,96063.88
2019-03-28T07:18:36.006Z,96059.23
2019-03-28T07:21:07.350Z,96070.29
2019-03-28T07:23:37.817Z,96069.19
2019-03-28T07:26:08.169Z,96064.27
2019-03-28T07:28:38.557Z,96067.63
2019-03-28T07:31:08.938Z,96074.13
2019-03-28T07:33:39.405Z,96075.11
2019-03-28T07:36:09.808Z,96062.23
2019-03-28T07:38:40.277Z,96060.33
2019-03-28T07:41:10.474Z,96068.39
2019-03-28T07:43:40.901Z,96067.23
2019-03-28T07:46:11.316Z,96069.16
2019-03-28T07:48:41.943Z,96063.02
2019-03-28T07:51:12.183Z,96053.26
2019-03-28T07:53:42.645Z,96068.53
2019-03-28T07:56:13.003Z,96064.62
2019-03-28T07:58:44.271Z,96064.98
2019-03-28T08:01:17.821Z,96074.43
2019-03-28T08:03:46.633Z,96075.26
2019-03-28T08:06:17.161Z,96068.94
2019-03-28T08:08:47.471Z,96054.44
2019-03-28T08:11:17.853Z,96059.06
2019-03-28T08:13:48.309Z,96075.56
2019-03-28T08:16:18.395Z,96070.22
2019-03-28T08:18:48.739Z,96066.34
2019-03-28T08:21:18.870Z,96059.92
2019-03-28T08:23:49.403Z,96051.73
2019-03-28T08:26:20.120Z,96060.00
2019-03-28T08:28:50.792Z,96054.19
2019-03-28T08:31:21.027Z,96057.09
2019-03-28T08:33:51.223Z,96052.28
2019-03-28T08:36:21.970Z,96063.11
2019-03-28T08:38:52.605Z,96051.80
2019-03-28T08:41:22.950Z,96046.67
2019-03-28T08:43:53.177Z,96038.94
2019-03-28T08:46:23.515Z,96048.91
2019-03-28T08:48:53.707Z,96049.45
2019-03-28T08:51:27.114Z,96059.89
2019-03-28T08:53:56.145Z,96051.34
2019-03-28T08:56:26.510Z,96054.88
2019-03-28T08:58:57.159Z,96050.44
2019-03-28T09:01:27.815Z,96047.49
2019-03-28T09:03:58.260Z,96061.95
2019-03-28T09:06:28.572Z,96041.95
2019-03-28T09:08:58.955Z,96050.56
2019-03-28T09:11:29.344Z,96053.36
2019-03-28T09:14:00.635Z,96043.78
2019-03-28T09:16:31.226Z,96044.86
2019-03-28T09:19:01.303Z,96042.20
2019-03-28T09:21:31.594Z,96044.64
2019-03-28T09:24:01.888Z,96034.94
2019-03-28T09:26:32.155Z,96033.22
2019-03-28T09:29:02.464Z,96031.34
2019-03-28T09:31:32.961Z,96045.73
2019-03-28T09:34:03.162Z,96037.50
2019-03-28T09:36:33.627Z,96047.59
2019-03-28T09:39:05.778Z,96047.45
2019-03-28T09:41:36.437Z,96035.59
2019-03-28T09:44:07.014Z,96034.56
2019-03-28T09:46:37.450Z,96028.94
2019-03-28T09:49:07.857Z,96024.09
2019-03-28T09:51:38.227Z,96023.06
2019-03-28T09:54:08.729Z,96022.79
2019-03-28T09:56:39.094Z,96025.91
2019-03-28T09:59:09.526Z,96020.94
2019-03-28T10:01:39.852Z,96016.40
2019-03-28T10:04:10.406Z,96032.18
2019-03-28T10:06:40.763Z,96019.04
2019-03-28T10:09:11.324Z,96031.19
2019-03-28T10:11:41.809Z,96021.33
2019-03-28T10:14:12.029Z,96010.80
2019-03-28T10:16:42.698Z,96023.36
2019-03-28T10:19:12.968Z,96010.01
2019-03-28T10:21:43.476Z,96006.34
2019-03-28T10:24:13.862Z,96004.44
2019-03-28T10:26:44.079Z,95998.58
2019-03-28T10:29:14.394Z,95998.53
2019-03-28T10:31:44.868Z,95993.41
2019-03-28T10:34:15.101Z,95994.80
2019-03-28T10:36:45.689Z,95990.06
2019-03-28T10:39:16.415Z,95991.63
2019-03-28T10:41:46.723Z,95989.52
2019-03-28T10:44:17.170Z,95980.49
2019-03-28T10:46:49.367Z,95978.19
2019-03-28T10:49:21.366Z,95978.19
2019-03-28T10:51:53.247Z,95968.25
2019-03-28T10:54:25.983Z,95965.92
2019-03-28T10:56:58.181Z,95967.48
2019-03-28T10:59:30.011Z,95976.05
2019-03-28T11:02:01.589Z,95960.23
2019-03-28T11:04:33.361Z,95976.92
2019-03-28T11:07:05.358Z,95963.77
2019-03-28T11:09:37.319Z,95965.95
2019-03-28T11:12:09.166Z,95962.48
2019-03-28T11:14:40.914Z,95953.84
2019-03-28T11:17:12.518Z,95948.33
2019-03-28T11:19:44.440Z,95943.66
2019-03-28T11:22:16.358Z,95948.67
2019-03-28T11:24:48.155Z,95944.83
2019-03-28T11:27:19.938Z,95940.30
2019-03-28T11:29:51.857Z,95949.21
2019-03-28T11:32:24.028Z,95942.88
2019-03-28T11:34:56.037Z,95937.33
2019-03-28T11:37:31.235Z,95930.08
2019-03-28T11:40:03.061Z,95949.53
2019-03-28T11:42:34.818Z,95913.89
2019-03-28T11:45:09.569Z,95921.79
2019-03-28T11:47:42.164Z,95910.55
2019-03-28T11:50:16.916Z,95906.46
2019-03-28T11:52:47.793Z,95907.77
2019-03-28T11:55:20.053Z,95896.46
2019-03-28T11:57:52.148Z,95895.84
2019-03-28T12:00:24.484Z,95896.78
2019-03-28T12:02:56.522Z,95897.83
2019-03-28T12:05:28.371Z,95890.48
2019-03-28T12:08:00.125Z,95909.23
2019-03-28T12:10:31.696Z,95903.72
2019-03-28T12:13:03.798Z,95890.84
2019-03-28T12:15:35.791Z,95885.56
2019-03-28T12:18:07.811Z,95873.77
2019-03-28T12:20:39.356Z,95893.30
2019-03-28T12:23:11.043Z,95880.28
2019-03-28T12:25:43.183Z,95888.64
2019-03-28T12:28:15.016Z,95869.92
2019-03-28T12:30:47.069Z,95869.60
2019-03-28T12:33:19.398Z,95871.00
2019-03-28T12:35:52.426Z,95858.16
2019-03-28T12:38:24.365Z,95856.10
2019-03-28T12:40:56.771Z,95849.28
2019-03-28T12:43:28.929Z,95849.28
2019-03-28T12:46:00.773Z,95848.87
2019-03-28T12:48:32.965Z,95863.61
2019-03-28T12:51:05.185Z,95850.79
2019-03-28T12:53:37.245Z,95832.98
2019-03-28T12:56:09.655Z,95832.98
2019-03-28T12:58:41.623Z,95833.97
2019-03-28T13:01:13.676Z,95827.85
2019-03-28T13:03:46.600Z,95828.12
2019-03-28T13:06:18.926Z,95828.12
2019-03-28T13:08:51.166Z,95811.84
2019-03-28T13:11:23.384Z,95811.84
2019-03-28T13:13:55.630Z,95819.22
2019-03-28T13:16:27.730Z,95819.16
2019-03-28T13:19:00.758Z,95814.56
2019-03-28T13:21:32.639Z,95809.58
2019-03-28T13:24:07.694Z,95815.61
2019-03-28T13:26:38.906Z,95809.27
2019-03-28T13:29:11.127Z,95809.06
2019-03-28T13:31:43.289Z,95809.56
2019-03-28T13:34:14.870Z,95815.54
2019-03-28T13:36:47.050Z,95808.98
2019-03-28T13:39:19.105Z,95808.78
2019-03-28T13:41:50.924Z,95798.90
2019-03-28T13:44:23.030Z,95798.90
2019-03-28T13:46:55.232Z,95799.53
2019-03-28T13:49:27.361Z,95799.53
2019-03-28T13:51:59.478Z,95794.05
2019-03-28T13:54:31.566Z,95794.05
2019-03-28T13:57:03.816Z,95792.03
2019-03-28T13:59:36.058Z,95798.64
2019-03-28T14:02:08.226Z,95797.86
2019-03-28T14:04:40.039Z,95815.47
2019-03-28T14:07:12.100Z,95798.90
2019-03-28T14:09:47.853Z,95808.27
2019-03-28T14:12:23.215Z,95808.27
2019-03-28T14:14:53.893Z,95797.48
2019-03-28T14:17:26.139Z,95805.88
2019-03-28T14:19:58.593Z,95791.41
2019-03-28T14:22:30.920Z,95791.41
2019-03-28T14:25:03.236Z,95792.89
2019-03-28T14:27:35.594Z,95800.28
2019-03-28T14:30:09.871Z,95801.52
2019-03-28T14:32:53.015Z,95792.78
2019-03-28T14:35:17.143Z,95790.28
2019-03-28T14:37:49.221Z,95790.28
2019-03-28T14:40:21.497Z,95793.97
2019-03-28T14:42:53.825Z,95799.65
2019-03-28T14:45:25.932Z,95785.77
2019-03-28T14:47:58.243Z,95779.80
2019-03-28T14:50:40.997Z,95784.05
2019-03-28T14:53:13.378Z,95777.19
2019-03-28T14:55:45.981Z,95783.86
2019-03-28T14:58:21.719Z,95786.95
2019-03-28T15:00:53.694Z,95805.14
2019-03-28T15:03:27.249Z,95792.98
2019-03-28T15:06:00.966Z,95790.78
2019-03-28T15:08:33.223Z,95785.91
2019-03-28T15:11:05.342Z,95783.52
2019-03-28T15:13:40.311Z,95783.78
2019-03-28T15:16:11.434Z,95791.47
2019-03-28T15:18:43.495Z,95806.19
2019-03-28T15:21:16.841Z,95789.53
2019-03-28T15:23:49.006Z,95797.23
2019-03-28T15:26:21.149Z,95797.23
2019-03-28T15:28:53.449Z,95803.38
2019-03-28T15:31:25.665Z,95790.98
2019-03-28T15:33:58.175Z,95801.71
2019-03-28T15:36:30.384Z,95801.71
2019-03-28T15:39:02.785Z,95803.70
2019-03-28T15:41:35.720Z,95803.03
2019-03-28T15:44:07.914Z,95803.03
2019-03-28T15:46:39.972Z,95805.22
2019-03-28T15:49:12.273Z,95809.33
2019-03-28T15:51:44.488Z,95820.80
2019-03-28T15:54:16.452Z,95831.86
2019-03-28T15:56:48.423Z,95822.50
2019-03-28T15:59:20.726Z,95831.63
2019-03-28T16:01:53.601Z,95831.72
2019-03-28T16:04:25.820Z,95828.74
2019-03-28T16:06:58.011Z,95830.09
2019-03-28T16:09:31.712Z,95827.14
2019-03-28T16:12:03.486Z,95828.41
2019-03-28T16:14:35.262Z,95836.41
2019-03-28T16:17:07.451Z,95835.97
2019-03-28T16:19:39.551Z,95839.27
2019-03-28T16:22:11.792Z,95840.18
2019-03-28T16:24:46.545Z,95835.40
2019-03-28T16:27:17.928Z,95839.02
2019-03-28T16:29:49.800Z,95844.84
2019-03-28T16:32:21.588Z,95830.37
2019-03-28T16:34:53.418Z,95838.53
2019-03-28T16:37:25.350Z,95838.44
2019-03-28T16:39:58.196Z,95839.83
2019-03-28T16:42:30.337Z,95841.80
2019-03-28T16:45:02.357Z,95845.18
2019-03-28T16:47:34.494Z,95845.80
2019-03-28T16:50:06.891Z,95842.56
2019-03-28T16:52:39.942Z,95843.58
2019-03-28T16:55:25.565Z,95846.66
2019-03-28T16:57:46.118Z,95847.47
2019-03-28T17:00:19.293Z,95849.25
2019-03-28T17:02:51.457Z,95849.14
2019-03-28T17:05:24.009Z,95853.44
2019-03-28T17:07:56.524Z,95853.50
2019-03-28T17:10:48.840Z,95857.20
2019-03-28T17:13:21.028Z,95852.47
2019-03-28T17:15:53.391Z,95858.02
2019-03-28T17:18:25.269Z,95855.09
2019-03-28T17:20:57.257Z,95863.97
2019-03-28T17:23:29.108Z,95861.61
2019-03-28T17:26:01.335Z,95869.63
2019-03-28T17:28:33.375Z,95875.72
2019-03-28T17:31:05.467Z,95871.01
2019-03-28T17:33:37.484Z,95880.38
2019-03-28T17:36:09.708Z,95879.05
2019-03-28T17:38:41.856Z,95882.36
2019-03-28T17:41:14.069Z,95879.86
2019-03-28T17:43:46.036Z,95888.50
2019-03-28T17:46:18.710Z,95893.75
2019-03-28T17:48:50.534Z,95895.65
2019-03-28T17:51:22.311Z,95895.07
2019-03-28T17:53:56.137Z,95896.12
2019-03-28T17:56:28.340Z,95902.20
2019-03-28T17:59:01.283Z,95905.17
2019-03-28T18:01:34.858Z,95910.14
2019-03-28T18:04:06.887Z,95909.09
2019-03-28T18:06:39.057Z,95918.33
2019-03-28T18:09:11.861Z,95917.63
2019-03-28T18:11:44.170Z,95924.84
2019-03-28T18:14:15.965Z,95928.88
2019-03-28T18:16:48.121Z,95927.34
2019-03-28T18:19:20.032Z,95931.02
2019-03-28T18:22:02.874Z,95933.84
2019-03-28T18:24:26.196Z,95934.32
2019-03-28T18:26:58.224Z,95933.72
2019-03-28T18:29:30.397Z,95925.83
2019-03-28T18:32:02.556Z,95936.32
2019-03-28T18:34:35.543Z,95933.24
2019-03-28T18:37:07.755Z,95934.67
2019-03-28T18:39:39.894Z,95938.44
2019-03-28T18:42:11.714Z,95937.05
2019-03-28T18:44:43.560Z,95939.04
2019-03-28T18:47:15.833Z,95940.59
2019-03-28T18:49:47.686Z,95938.70
2019-03-28T18:52:19.798Z,95939.73
2019-03-28T18:54:51.865Z,95941.41
2019-03-28T18:57:24.241Z,95944.09
2019-03-28T18:59:56.180Z,95946.02
2019-03-28T19:02:28.411Z,95948.61
2019-03-28T19:05:01.596Z,95949.79
2019-03-28T19:07:33.698Z,95952.49
2019-03-28T19:10:06.289Z,95953.45
2019-03-28T19:12:38.431Z,95955.80
2019-03-28T19:15:11.390Z,95957.08
2019-03-28T19:17:43.541Z,95957.91
2019-03-28T19:20:15.932Z,95958.84
2019-03-28T19:22:50.177Z,95959.43
2019-03-28T19:25:21.888Z,95953.15
2019-03-28T19:27:54.321Z,95952.80
2019-03-28T19:30:33.751Z,95954.80
2019-03-28T19:33:07.044Z,95954.23
2019-03-28T19:35:41.119Z,95967.84
2019-03-28T19:38:13.605Z,95960.39
2019-03-28T19:40:45.760Z,95957.64
2019-03-28T19:43:20.760Z,95964.83
2019-03-28T19:45:51.808Z,95965.23
2019-03-28T19:48:23.904Z,95963.48
2019-03-28T19:50:55.800Z,95964.52
2019-03-28T19:53:27.648Z,95979.69
2019-03-28T19:55:59.741Z,95978.39
2019-03-28T19:58:34.881Z,95977.27
2019-03-28T20:01:05.782Z,95979.77
2019-03-28T20:03:38.075Z,95978.06
2019-03-28T20:06:21.664Z,95985.28
2019-03-28T20:08:45.010Z,95981.48
2019-03-28T20:11:17.261Z,95986.52
2019-03-28T20:13:50.057Z,95984.95
2019-03-28T20:16:22.267Z,95984.13
2019-03-28T20:18:54.537Z,95989.88
2019-03-28T20:21:26.767Z,95983.92
2019-03-28T20:23:58.847Z,95987.76
2019-03-28T20:26:30.881Z,95983.89
2019-03-28T20:29:03.002Z,95981.20
2019-03-28T20:31:35.181Z,95979.52
2019-03-28T20:34:07.365Z,95981.14
2019-03-28T20:36:43.734Z,95986.98
2019-03-28T20:39:13.675Z,95985.79
2019-03-28T20:41:45.623Z,95983.03
2019-03-28T20:44:18.826Z,95987.51
2019-03-28T20:46:51.087Z,95992.73
2019-03-28T20:49:23.175Z,95987.91
2019-03-28T20:51:55.337Z,95992.23
2019-03-28T20:54:27.536Z,95982.02
2019-03-28T20:56:59.620Z,95979.91
2019-03-28T20:59:32.854Z,95992.80
2019-03-28T21:02:05.112Z,95998.81
2019-03-28T21:04:38.524Z,95993.97
2019-03-28T21:07:10.618Z,95994.38
2019-03-28T21:09:42.886Z,95990.77
2019-03-28T21:12:15.075Z,95994.30
2019-03-28T21:14:47.273Z,95991.95
2019-03-28T21:17:19.296Z,95992.20
2019-03-28T21:19:52.510Z,95992.67
2019-03-28T21:22:24.708Z,96002.67
2019-03-28T21:24:57.031Z,96010.61
2019-03-28T21:27:29.834Z,96008.78
2019-03-28T21:30:02.029Z,96008.72
2019-03-28T21:32:34.233Z,96016.17
2019-03-28T21:35:06.412Z,96020.02
2019-03-28T21:37:38.417Z,96025.19
2019-03-28T21:40:08.658Z,96021.72
2019-03-28T21:42:39.052Z,96024.20
2019-03-28T21:45:09.439Z,96009.91
2019-03-28T21:47:39.676Z,96008.63
2019-03-28T21:50:10.196Z,96012.85
2019-03-28T21:52:40.954Z,96015.24
2019-03-28T21:55:11.738Z,96021.08
2019-03-28T21:57:42.618Z,96012.50
2019-03-28T22:00:13.282Z,96017.30
2019-03-28T22:02:43.326Z,96020.61
2019-03-28T22:05:13.828Z,96015.08
2019-03-28T22:07:44.282Z,96013.13
2019-03-28T22:10:14.847Z,96014.50
2019-03-28T22:12:45.036Z,96009.23
2019-03-28T22:15:15.593Z,96011.81
2019-03-28T22:17:45.801Z,96012.11
2019-03-28T22:20:16.106Z,96019.00
2019-03-28T22:22:46.441Z,96024.79
2019-03-28T22:25:16.682Z,96033.30
2019-03-28T22:27:47.520Z,96030.35
2019-03-28T22:30:18.067Z,96032.94
2019-03-28T22:32:48.273Z,96038.63
2019-03-28T22:35:18.354Z,96030.72
2019-03-28T22:37:48.586Z,96032.47
2019-03-28T22:40:18.960Z,96032.27
2019-03-28T22:42:49.039Z,96029.53
2019-03-28T22:45:19.113Z,96028.59
2019-03-28T22:47:49.338Z,96038.92
2019-03-28T22:50:19.473Z,96041.97
2019-03-28T22:52:49.576Z,96032.73
2019-03-28T22:55:19.743Z,96033.09
2019-03-28T22:57:49.890Z,96043.42
2019-03-28T23:00:21.230Z,96045.44
2019-03-28T23:02:52.939Z,96040.47
2019-03-28T23:05:23.259Z,96048.72
2019-03-28T23:07:53.538Z,96046.60
2019-03-28T23:10:23.837Z,96044.38
2019-03-28T23:12:54.109Z,96054.28
2019-03-28T23:15:24.212Z,96053.43
2019-03-28T23:17:54.651Z,96053.37
2019-03-28T23:20:25.186Z,96056.66
2019-03-28T23:22:55.551Z,96059.77
2019-03-28T23:25:25.865Z,96064.31
2019-03-28T23:27:56.263Z,96054.52
2019-03-28T23:30:26.284Z,96059.47
2019-03-28T23:32:56.385Z,96053.53
2019-03-28T23:35:26.669Z,96054.84
2019-03-28T23:37:57.076Z,96047.61
2019-03-28T23:40:27.410Z,96055.61
2019-03-28T23:42:58.088Z,96051.48
2019-03-28T23:45:28.279Z,96054.34
2019-03-28T23:47:58.587Z,96049.28
2019-03-28T23:50:28.812Z,96051.89
2019-03-28T23:52:58.920Z,96052.68
2019-03-28T23:55:29.191Z,96051.63
2019-03-28T23:57:59.360Z,96059.45
